This is the latest recevied weather packets stored in our database for station/object N2KI-13. If no packets are shown the sender has not sent any weather packets the latest 10 day(s).
| Time | Temp. | Humidity | Pressure | Rain* | Wind** | Luminosity | Snow |
|---|---|---|---|---|---|---|---|
| 1777474504 | 17.22° C | 53% | 1013.6 hPa | 0 mm | - | - | - |
| 1777471805 | 16.67° C | 52% | 1013.6 hPa | 0 mm | - | - | - |
| 1777470304 | 15.56° C | 53% | 1013.9 hPa | 0 mm | - | - | - |
| 1777470004 | 15.56° C | 54% | 1014 hPa | 0 mm | - | - | - |
| 1777467004 | 13.89° C | 59% | 1015.1 hPa | 0 mm | - | - | - |
| 1777466704 | 13.89° C | 60% | 1015.1 hPa | 0 mm | - | - | - |
| 1777465204 | 12.78° C | 65% | 1015.4 hPa | 0 mm | - | - | - |
| 1777464904 | 12.78° C | 65% | 1015.3 hPa | 0 mm | - | - | - |
| 1777464604 | 12.78° C | 64% | 1015.3 hPa | 0 mm | - | - | - |
| 1777463405 | 12.22° C | 67% | 1015.5 hPa | 0 mm | - | - | - |
| 1777462204 | 12.22° C | 69% | 1015.4 hPa | 0 mm | - | - | - |
| 1777455904 | 11.11° C | 69% | 1015.8 hPa | 0 mm | - | - | - |
| 1777454104 | 11.67° C | 65% | 1015.9 hPa | 0 mm | - | - | - |
| 1777452604 | 11.67° C | 64% | 1016 hPa | 0 mm | - | - | - |
| 1777450804 | 11.67° C | 63% | 1015.8 hPa | 0 mm | - | - | - |
| 1777449904 | 11.67° C | 64% | 1015.7 hPa | 0 mm | - | - | - |
| 1777449304 | 11.67° C | 64% | 1015.7 hPa | 0 mm | - | - | - |
| 1777448404 | 11.67° C | 66% | 1015.5 hPa | 0 mm | - | - | - |
| 1777447804 | 11.67° C | 68% | 1015.7 hPa | 0 mm | - | - | - |
| 1777441504 | 12.78° C | 62% | 1017 hPa | 0 mm | - | - | - |
| 1777441204 | 12.78° C | 62% | 1017 hPa | 0 mm | - | - | - |
| 1777437604 | 13.33° C | 60% | 1017.7 hPa | 0 mm | - | - | - |
| 1777436704 | 13.89° C | 61% | 1017.6 hPa | 0 mm | - | - | - |
| 1777433404 | 13.89° C | 60% | 1017 hPa | 0 mm | - | - | - |
| 1777432804 | 13.89° C | 61% | 1017 hPa | 0 mm | - | - | - |
* Rain latest hour (hover to see other rain measurements)
** Current wind speed in m/s (hover to see current wind gust speed)